WXM80 ListenWXM80 Stop

You find our weather info also at:

UK Metoffice

WeatherCloud

Weather Underground

Northeastern Weather Network

AWEKAS

Citizen Weather Observer Program (CWOP)

HAMweather, WeatherForYou, PWS Weather


Weather Underground History page Text

Daily Summary for January 28, 2018 Units:  Both    English   Metric
« Previous Day
Next Day »
Daily Weekly Monthly Yearly Custom
  High: Low: Average:
Temperature: TemperatureF °F /  -17.8 °C 40.3 °F /  4.6 °C 47 °F /  8.3 °C
Dew Point: DewpointF °F /  -17.8 °C 38.7 °F /  3.7 °C 44.7 °F /  7.1 °C
Humidity: Humidity % 80 % 91 %
Wind Speed: WindSpeedMPH mph /  0 km/h - 1 mph /  1.6 km/h
Wind Gust: WindSpeedGustMPH mph /  0 km/h - -
Wind:- - SW
Pressure: PressureIn in /  0 hPa 29.96 in /  1014.4 hPa -
Precipitation: 0.02 in /  0.51 mm    
Historical Graphs
 
 
Tabular Data for January 28, 2018
Time Temperature Dew Point Pressure Wind Wind Speed Wind Gust Humidity Rainfall Rate (Hourly)
TemperatureF °F /  -17.8 °C DewpointF °F /  -17.8 °C PressureIn in /  0 hPa Calm     Humidity % HourlyPrecipIn in /  0 mm
00:04 49.6 °F /  9.8 °C 43.7 °F /  6.5 °C 29.97 in /  1014.8 hPa SSW 6.5 mph /  10.5 km/h 11.5 mph /  18.5 km/h 80 % 0.00 in /  0 mm
00:09 49.6 °F /  9.8 °C 43.7 °F /  6.5 °C 29.97 in /  1014.8 hPa South 7.2 mph /  11.6 km/h 9.0 mph /  14.5 km/h 80 % 0.00 in /  0 mm
00:14 49.6 °F /  9.8 °C 43.7 °F /  6.5 °C 29.97 in /  1014.8 hPa SSW 5.5 mph /  8.9 km/h 9.2 mph /  14.8 km/h 80 % 0.00 in /  0 mm
00:20 49.7 °F /  9.8 °C 43.8 °F /  6.6 °C 29.97 in /  1014.8 hPa South 8.8 mph /  14.2 km/h 15.0 mph /  24.1 km/h 80 % 0.00 in /  0 mm
00:25 49.8 °F /  9.9 °C 43.9 °F /  6.6 °C 29.97 in /  1014.8 hPa West 4.9 mph /  7.9 km/h 11.0 mph /  17.7 km/h 80 % 0.00 in /  0 mm
00:30 49.9 °F /  9.9 °C 44.0 °F /  6.7 °C 29.97 in /  1014.8 hPa SSW 5.0 mph /  8 km/h 6.9 mph /  11.1 km/h 80 % 0.00 in /  0 mm
00:35 49.9 °F /  9.9 °C 44.0 °F /  6.7 °C 29.97 in /  1014.8 hPa SW 4.7 mph /  7.6 km/h 10.4 mph /  16.7 km/h 80 % 0.00 in /  0 mm
00:40 50.0 °F /  10 °C 44.1 °F /  6.7 °C 29.96 in /  1014.4 hPa SSW 4.7 mph /  7.6 km/h 9.2 mph /  14.8 km/h 80 % 0.00 in /  0 mm
00:45 50.1 °F /  10.1 °C 44.2 °F /  6.8 °C 29.96 in /  1014.4 hPa SW 6.1 mph /  9.8 km/h 12.7 mph /  20.4 km/h 80 % 0.00 in /  0 mm
00:50 50.1 °F /  10.1 °C 44.2 °F /  6.8 °C 29.96 in /  1014.4 hPa SW 4.9 mph /  7.9 km/h 9.2 mph /  14.8 km/h 80 % 0.00 in /  0 mm
00:55 50.2 °F /  10.1 °C 44.3 °F /  6.8 °C 29.96 in /  1014.4 hPa SSE 8.2 mph /  13.2 km/h 15.0 mph /  24.1 km/h 80 % 0.00 in /  0 mm
01:00 50.3 °F /  10.2 °C 44.4 °F /  6.9 °C 29.96 in /  1014.4 hPa SW 6.3 mph /  10.1 km/h 12.0 mph /  19.3 km/h 80 % 0.00 in /  0 mm
01:05 50.4 °F /  10.2 °C 44.5 °F /  6.9 °C 29.97 in /  1014.8 hPa SW 6.9 mph /  11.1 km/h 13.8 mph /  22.2 km/h 80 % 0.00 in /  0 mm
01:10 50.5 °F /  10.3 °C 44.6 °F /  7 °C 29.97 in /  1014.8 hPa SSW 6.0 mph /  9.7 km/h 9.0 mph /  14.5 km/h 80 % 0.00 in /  0 mm
01:15 50.6 °F /  10.3 °C 44.7 °F /  7.1 °C 29.97 in /  1014.8 hPa SW 5.3 mph /  8.5 km/h 8.1 mph /  13 km/h 80 % 0.00 in /  0 mm
01:20 50.7 °F /  10.4 °C 44.8 °F /  7.1 °C 29.97 in /  1014.8 hPa WSW 5.4 mph /  8.7 km/h 9.2 mph /  14.8 km/h 80 % 0.00 in /  0 mm
01:25 50.8 °F /  10.4 °C 44.9 °F /  7.2 °C 29.97 in /  1014.8 hPa SSW 4.2 mph /  6.8 km/h 7.0 mph /  11.3 km/h 80 % 0.00 in /  0 mm
01:30 50.8 °F /  10.4 °C 44.9 °F /  7.2 °C 29.97 in /  1014.8 hPa SSW 3.6 mph /  5.8 km/h 8.1 mph /  13 km/h 80 % 0.00 in /  0 mm
01:35 50.8 °F /  10.4 °C 44.9 °F /  7.2 °C 29.97 in /  1014.8 hPa SSW 5.1 mph /  8.2 km/h 8.0 mph /  12.9 km/h 80 % 0.00 in /  0 mm
01:40 50.8 °F /  10.4 °C 45.2 °F /  7.3 °C 29.97 in /  1014.8 hPa WSW 2.9 mph /  4.7 km/h 7.0 mph /  11.3 km/h 81 % 0.00 in /  0 mm
01:45 50.8 °F /  10.4 °C 45.2 °F /  7.3 °C 29.97 in /  1014.8 hPa SSW 4.2 mph /  6.8 km/h 7.0 mph /  11.3 km/h 81 % 0.00 in /  0 mm
01:50 50.7 °F /  10.4 °C 45.1 °F /  7.3 °C 29.97 in /  1014.8 hPa South 3.4 mph /  5.5 km/h 8.1 mph /  13 km/h 81 % 0.00 in /  0 mm
01:56 50.6 °F /  10.3 °C 45.3 °F /  7.4 °C 29.97 in /  1014.8 hPa WSW 4.2 mph /  6.8 km/h 6.0 mph /  9.7 km/h 82 % 0.00 in /  0 mm
02:01 50.5 °F /  10.3 °C 45.5 °F /  7.5 °C 29.96 in /  1014.4 hPa SW 1.3 mph /  2.1 km/h 6.0 mph /  9.7 km/h 83 % 0.00 in /  0 mm
02:06 50.4 °F /  10.2 °C 45.4 °F /  7.4 °C 29.96 in /  1014.4 hPa SSW 2.4 mph /  3.9 km/h 5.8 mph /  9.3 km/h 83 % 0.00 in /  0 mm
02:11 50.3 °F /  10.2 °C 45.6 °F /  7.6 °C 29.96 in /  1014.4 hPa SW 1.9 mph /  3.1 km/h 3.5 mph /  5.6 km/h 84 % 0.00 in /  0 mm
02:16 50.1 °F /  10.1 °C 45.5 °F /  7.5 °C 29.97 in /  1014.8 hPa SW 2.2 mph /  3.5 km/h 3.5 mph /  5.6 km/h 84 % 0.00 in /  0 mm
02:21 50.0 °F /  10 °C 45.4 °F /  7.4 °C 29.96 in /  1014.4 hPa SW 2.6 mph /  4.2 km/h 4.6 mph /  7.4 km/h 84 % 0.00 in /  0 mm
02:26 49.8 °F /  9.9 °C 45.2 °F /  7.3 °C 29.96 in /  1014.4 hPa SW 3.7 mph /  6 km/h 6.9 mph /  11.1 km/h 84 % 0.00 in /  0 mm
02:31 49.7 °F /  9.8 °C 45.1 °F /  7.3 °C 29.96 in /  1014.4 hPa SSW 2.3 mph /  3.7 km/h 3.5 mph /  5.6 km/h 84 % 0.00 in /  0 mm
02:36 49.5 °F /  9.7 °C 45.2 °F /  7.3 °C 29.97 in /  1014.8 hPa SW 0.4 mph /  0.6 km/h 2.0 mph /  3.2 km/h 85 % 0.00 in /  0 mm
02:41 49.4 °F /  9.7 °C 45.1 °F /  7.3 °C 29.97 in /  1014.8 hPa SW 2.1 mph /  3.4 km/h 3.5 mph /  5.6 km/h 85 % 0.00 in /  0 mm
02:46 49.2 °F /  9.6 °C 44.9 °F /  7.2 °C 29.97 in /  1014.8 hPa WSW 1.0 mph /  1.6 km/h 3.5 mph /  5.6 km/h 85 % 0.00 in /  0 mm
02:51 49.1 °F /  9.5 °C 44.8 °F /  7.1 °C 29.97 in /  1014.8 hPa SSW 1.9 mph /  3.1 km/h 5.0 mph /  8 km/h 85 % 0.00 in /  0 mm
02:56 48.9 °F /  9.4 °C 44.6 °F /  7 °C 29.97 in /  1014.8 hPa SW 2.5 mph /  4 km/h 4.0 mph /  6.4 km/h 85 % 0.00 in /  0 mm
03:01 48.7 °F /  9.3 °C 44.7 °F /  7.1 °C 29.97 in /  1014.8 hPa SSW 1.2 mph /  1.9 km/h 3.5 mph /  5.6 km/h 86 % 0.00 in /  0 mm
03:06 48.6 °F /  9.2 °C 44.6 °F /  7 °C 29.97 in /  1014.8 hPa SSW 1.9 mph /  3.1 km/h 6.9 mph /  11.1 km/h 86 % 0.00 in /  0 mm
03:11 48.4 °F /  9.1 °C 44.4 °F /  6.9 °C 29.97 in /  1014.8 hPa SW 1.6 mph /  2.6 km/h 3.5 mph /  5.6 km/h 86 % 0.00 in /  0 mm
03:16 48.3 °F /  9.1 °C 44.3 °F /  6.8 °C 29.97 in /  1014.8 hPa SW 1.2 mph /  1.9 km/h 3.5 mph /  5.6 km/h 86 % 0.00 in /  0 mm
03:21 48.1 °F /  8.9 °C 44.4 °F /  6.9 °C 29.97 in /  1014.8 hPa SW 1.0 mph /  1.6 km/h 3.5 mph /  5.6 km/h 87 % 0.00 in /  0 mm
03:26 47.9 °F /  8.8 °C 44.5 °F /  6.9 °C 29.97 in /  1014.8 hPa SSW 1.5 mph /  2.4 km/h 4.6 mph /  7.4 km/h 88 % 0.00 in /  0 mm
03:32 47.8 °F /  8.8 °C 44.4 °F /  6.9 °C 29.97 in /  1014.8 hPa SSW 3.0 mph /  4.8 km/h 6.0 mph /  9.7 km/h 88 % 0.00 in /  0 mm
03:37 47.7 °F /  8.7 °C 44.6 °F /  7 °C 29.97 in /  1014.8 hPa SSW 2.2 mph /  3.5 km/h 4.6 mph /  7.4 km/h 89 % 0.00 in /  0 mm
03:42 47.6 °F /  8.7 °C 44.5 °F /  6.9 °C 29.97 in /  1014.8 hPa SW 0.5 mph /  0.8 km/h 3.5 mph /  5.6 km/h 89 % 0.00 in /  0 mm
03:47 47.6 °F /  8.7 °C 44.8 °F /  7.1 °C 29.96 in /  1014.4 hPa SW 1.5 mph /  2.4 km/h 5.8 mph /  9.3 km/h 90 % 0.00 in /  0 mm
03:52 47.5 °F /  8.6 °C 44.7 °F /  7.1 °C 29.97 in /  1014.8 hPa SW 1.8 mph /  2.9 km/h 3.5 mph /  5.6 km/h 90 % 0.00 in /  0 mm
03:57 47.5 °F /  8.6 °C 44.7 °F /  7.1 °C 29.97 in /  1014.8 hPa WSW 2.8 mph /  4.5 km/h 6.0 mph /  9.7 km/h 90 % 0.00 in /  0 mm
04:02 47.5 °F /  8.6 °C 45.0 °F /  7.2 °C 29.97 in /  1014.8 hPa WSW 4.7 mph /  7.6 km/h 6.9 mph /  11.1 km/h 91 % 0.00 in /  0 mm
04:07 47.5 °F /  8.6 °C 45.3 °F /  7.4 °C 29.97 in /  1014.8 hPa SW 2.6 mph /  4.2 km/h 9.2 mph /  14.8 km/h 92 % 0.00 in /  0 mm
04:12 47.6 °F /  8.7 °C 45.4 °F /  7.4 °C 29.97 in /  1014.8 hPa SW 2.7 mph /  4.3 km/h 3.5 mph /  5.6 km/h 92 % 0.00 in /  0 mm
04:17 47.6 °F /  8.7 °C 45.4 °F /  7.4 °C 29.97 in /  1014.8 hPa SSW 1.9 mph /  3.1 km/h 3.5 mph /  5.6 km/h 92 % 0.00 in /  0 mm
04:22 47.5 °F /  8.6 °C 45.3 °F /  7.4 °C 29.97 in /  1014.8 hPa SW 2.0 mph /  3.2 km/h 3.5 mph /  5.6 km/h 92 % 0.00 in /  0 mm
04:27 47.5 °F /  8.6 °C 45.3 °F /  7.4 °C 29.97 in /  1014.8 hPa SSW 2.5 mph /  4 km/h 4.0 mph /  6.4 km/h 92 % 0.00 in /  0 mm
04:32 47.5 °F /  8.6 °C 45.6 °F /  7.6 °C 29.97 in /  1014.8 hPa WSW 0.1 mph /  0.2 km/h 3.5 mph /  5.6 km/h 93 % 0.00 in /  0 mm
04:37 47.6 °F /  8.7 °C 45.7 °F /  7.6 °C 29.98 in /  1015.1 hPa SW 1.9 mph /  3.1 km/h 3.5 mph /  5.6 km/h 93 % 0.00 in /  0 mm
04:42 47.5 °F /  8.6 °C 45.6 °F /  7.6 °C 29.97 in /  1014.8 hPa SSW 2.9 mph /  4.7 km/h 4.0 mph /  6.4 km/h 93 % 0.00 in /  0 mm
04:47 47.6 °F /  8.7 °C 45.7 °F /  7.6 °C 29.98 in /  1015.1 hPa SW 2.2 mph /  3.5 km/h 3.5 mph /  5.6 km/h 93 % 0.00 in /  0 mm
04:52 47.6 °F /  8.7 °C 45.7 °F /  7.6 °C 29.98 in /  1015.1 hPa SSW 1.8 mph /  2.9 km/h 3.0 mph /  4.8 km/h 93 % 0.00 in /  0 mm
04:57 47.6 °F /  8.7 °C 45.7 °F /  7.6 °C 29.98 in /  1015.1 hPa WSW 1.9 mph /  3.1 km/h 3.5 mph /  5.6 km/h 93 % 0.00 in /  0 mm
05:02 47.7 °F /  8.7 °C 46.1 °F /  7.8 °C 29.98 in /  1015.1 hPa SSW 0.7 mph /  1.1 km/h 4.6 mph /  7.4 km/h 94 % 0.00 in /  0 mm
05:08 47.7 °F /  8.7 °C 46.1 °F /  7.8 °C 29.98 in /  1015.1 hPa SSW 0.8 mph /  1.3 km/h 3.5 mph /  5.6 km/h 94 % 0.00 in /  0 mm
05:13 47.7 °F /  8.7 °C 46.1 °F /  7.8 °C 29.98 in /  1015.1 hPa SSW 1.3 mph /  2.1 km/h 4.0 mph /  6.4 km/h 94 % 0.00 in /  0 mm
05:18 47.8 °F /  8.8 °C 46.2 °F /  7.9 °C 29.98 in /  1015.1 hPa SW 2.4 mph /  3.9 km/h 8.1 mph /  13 km/h 94 % 0.00 in /  0 mm
05:23 47.9 °F /  8.8 °C 46.3 °F /  7.9 °C 29.98 in /  1015.1 hPa SW 2.9 mph /  4.7 km/h 3.5 mph /  5.6 km/h 94 % 0.00 in /  0 mm
05:28 48.0 °F /  8.9 °C 46.4 °F /  8 °C 29.98 in /  1015.1 hPa SW 3.6 mph /  5.8 km/h 5.8 mph /  9.3 km/h 94 % 0.00 in /  0 mm
05:33 48.1 °F /  8.9 °C 46.7 °F /  8.2 °C 29.98 in /  1015.1 hPa SW 4.0 mph /  6.4 km/h 7.0 mph /  11.3 km/h 95 % 0.00 in /  0 mm
05:38 48.1 °F /  8.9 °C 46.7 °F /  8.2 °C 29.98 in /  1015.1 hPa WSW 1.9 mph /  3.1 km/h 3.5 mph /  5.6 km/h 95 % 0.00 in /  0 mm
05:43 48.2 °F /  9 °C 46.8 °F /  8.2 °C 29.98 in /  1015.1 hPa SW 2.8 mph /  4.5 km/h 4.6 mph /  7.4 km/h 95 % 0.00 in /  0 mm
05:48 48.2 °F /  9 °C 46.8 °F /  8.2 °C 29.98 in /  1015.1 hPa SW 0.9 mph /  1.4 km/h 3.5 mph /  5.6 km/h 95 % 0.00 in /  0 mm
05:53 48.2 °F /  9 °C 46.8 °F /  8.2 °C 29.98 in /  1015.1 hPa WSW 1.8 mph /  2.9 km/h 3.5 mph /  5.6 km/h 95 % 0.00 in /  0 mm
05:58 48.3 °F /  9.1 °C 46.9 °F /  8.3 °C 29.98 in /  1015.1 hPa West 1.3 mph /  2.1 km/h 4.6 mph /  7.4 km/h 95 % 0.00 in /  0 mm
06:03 48.3 °F /  9.1 °C 46.9 °F /  8.3 °C 29.98 in /  1015.1 hPa SW 0.6 mph /  1 km/h 2.3 mph /  3.7 km/h 95 % 0.00 in /  0 mm
06:08 48.3 °F /  9.1 °C 46.9 °F /  8.3 °C 29.98 in /  1015.1 hPa SW 0.9 mph /  1.4 km/h 1.2 mph /  1.9 km/h 95 % 0.00 in /  0 mm
06:13 48.3 °F /  9.1 °C 46.9 °F /  8.3 °C 29.98 in /  1015.1 hPa SW 0.9 mph /  1.4 km/h 3.5 mph /  5.6 km/h 95 % 0.00 in /  0 mm
06:18 48.3 °F /  9.1 °C 46.9 °F /  8.3 °C 29.98 in /  1015.1 hPa SSW 1.3 mph /  2.1 km/h 3.5 mph /  5.6 km/h 95 % 0.00 in /  0 mm
06:23 48.3 °F /  9.1 °C 46.9 °F /  8.3 °C 29.99 in /  1015.5 hPa SW 1.2 mph /  1.9 km/h 2.3 mph /  3.7 km/h 95 % 0.00 in /  0 mm
06:28 48.3 °F /  9.1 °C 46.9 °F /  8.3 °C 29.99 in /  1015.5 hPa SW 1.7 mph /  2.7 km/h 3.5 mph /  5.6 km/h 95 % 0.00 in /  0 mm
06:34 48.3 °F /  9.1 °C 46.9 °F /  8.3 °C 29.99 in /  1015.5 hPa WSW 2.7 mph /  4.3 km/h 4.0 mph /  6.4 km/h 95 % 0.00 in /  0 mm
06:39 48.3 °F /  9.1 °C 46.9 °F /  8.3 °C 30.00 in /  1015.8 hPa SW 0.7 mph /  1.1 km/h 2.3 mph /  3.7 km/h 95 % 0.00 in /  0 mm
06:44 48.2 °F /  9 °C 46.8 °F /  8.2 °C 30.00 in /  1015.8 hPa WSW 0.8 mph /  1.3 km/h 2.3 mph /  3.7 km/h 95 % 0.00 in /  0 mm
06:49 48.3 °F /  9.1 °C 46.9 °F /  8.3 °C 30.00 in /  1015.8 hPa Calm   2.3 mph /  3.7 km/h 95 % 0.00 in /  0 mm
06:54 48.2 °F /  9 °C 46.8 °F /  8.2 °C 30.00 in /  1015.8 hPa Calm     95 % 0.00 in /  0 mm
06:59 48.2 °F /  9 °C 46.8 °F /  8.2 °C 30.00 in /  1015.8 hPa SW 0.3 mph /  0.5 km/h 1.2 mph /  1.9 km/h 95 % 0.00 in /  0 mm
07:04 48.2 °F /  9 °C 46.8 °F /  8.2 °C 30.00 in /  1015.8 hPa SW 0.1 mph /  0.2 km/h 2.3 mph /  3.7 km/h 95 % 0.00 in /  0 mm
07:09 48.2 °F /  9 °C 46.8 °F /  8.2 °C 30.00 in /  1015.8 hPa Calm     95 % 0.00 in /  0 mm
07:14 48.2 °F /  9 °C 46.8 °F /  8.2 °C 30.01 in /  1016.1 hPa WSW 0.8 mph /  1.3 km/h 2.3 mph /  3.7 km/h 95 % 0.00 in /  0 mm
07:19 48.2 °F /  9 °C 46.8 °F /  8.2 °C 30.01 in /  1016.1 hPa SW 1.4 mph /  2.3 km/h 3.5 mph /  5.6 km/h 95 % 0.00 in /  0 mm
07:24 48.2 °F /  9 °C 46.8 °F /  8.2 °C 30.01 in /  1016.1 hPa SW 0.1 mph /  0.2 km/h 2.3 mph /  3.7 km/h 95 % 0.00 in /  0 mm
07:29 48.2 °F /  9 °C 46.8 °F /  8.2 °C 30.00 in /  1015.8 hPa SW 0.2 mph /  0.3 km/h 2.0 mph /  3.2 km/h 95 % 0.00 in /  0 mm
07:34 48.2 °F /  9 °C 46.8 °F /  8.2 °C 30.01 in /  1016.1 hPa SW 0.3 mph /  0.5 km/h 2.3 mph /  3.7 km/h 95 % 0.01 in /  0.25 mm
07:39 48.2 °F /  9 °C 46.8 °F /  8.2 °C 30.01 in /  1016.1 hPa SW 0.4 mph /  0.6 km/h 2.3 mph /  3.7 km/h 95 % 0.01 in /  0.25 mm
07:44 48.2 °F /  9 °C 46.8 °F /  8.2 °C 30.01 in /  1016.1 hPa Calm   1.2 mph /  1.9 km/h 95 % 0.01 in /  0.25 mm
07:49 48.2 °F /  9 °C 46.8 °F /  8.2 °C 30.01 in /  1016.1 hPa WSW 0.4 mph /  0.6 km/h 2.3 mph /  3.7 km/h 95 % 0.01 in /  0.25 mm
07:54 48.2 °F /  9 °C 46.8 °F /  8.2 °C 30.01 in /  1016.1 hPa Calm   1.0 mph /  1.6 km/h 95 % 0.01 in /  0.25 mm
08:00 48.2 °F /  9 °C 46.8 °F /  8.2 °C 30.02 in /  1016.5 hPa WSW 2.1 mph /  3.4 km/h 3.0 mph /  4.8 km/h 95 % 0.01 in /  0.25 mm
08:05 48.2 °F /  9 °C 46.8 °F /  8.2 °C 30.02 in /  1016.5 hPa WSW 1.7 mph /  2.7 km/h 3.5 mph /  5.6 km/h 95 % 0.01 in /  0.25 mm
08:10 48.3 °F /  9.1 °C 46.9 °F /  8.3 °C 30.02 in /  1016.5 hPa WSW 0.3 mph /  0.5 km/h 2.3 mph /  3.7 km/h 95 % 0.01 in /  0.25 mm
08:15 48.3 °F /  9.1 °C 46.9 °F /  8.3 °C 30.02 in /  1016.5 hPa WSW 0.3 mph /  0.5 km/h 1.2 mph /  1.9 km/h 95 % 0.01 in /  0.25 mm
08:20 48.3 °F /  9.1 °C 46.9 °F /  8.3 °C 30.02 in /  1016.5 hPa WSW 0.1 mph /  0.2 km/h 1.2 mph /  1.9 km/h 95 % 0.01 in /  0.25 mm
08:25 48.3 °F /  9.1 °C 46.9 °F /  8.3 °C 30.02 in /  1016.5 hPa Calm   2.3 mph /  3.7 km/h 95 % 0.01 in /  0.25 mm
08:30 48.3 °F /  9.1 °C 46.9 °F /  8.3 °C 30.02 in /  1016.5 hPa WSW 0.3 mph /  0.5 km/h 1.2 mph /  1.9 km/h 95 % 0.01 in /  0.25 mm
08:35 48.3 °F /  9.1 °C 46.9 °F /  8.3 °C 30.02 in /  1016.5 hPa WSW 0.9 mph /  1.4 km/h 1.2 mph /  1.9 km/h 95 % 0.00 in /  0 mm
08:40 48.3 °F /  9.1 °C 46.9 °F /  8.3 °C 30.02 in /  1016.5 hPa Calm     95 % 0.00 in /  0 mm
08:45 48.3 °F /  9.1 °C 46.9 °F /  8.3 °C 30.02 in /  1016.5 hPa Calm     95 % 0.00 in /  0 mm
08:50 48.3 °F /  9.1 °C 46.9 °F /  8.3 °C 30.02 in /  1016.5 hPa WSW 0.1 mph /  0.2 km/h 1.2 mph /  1.9 km/h 95 % 0.00 in /  0 mm
08:55 48.3 °F /  9.1 °C 46.9 °F /  8.3 °C 30.02 in /  1016.5 hPa WSW 0.9 mph /  1.4 km/h 2.3 mph /  3.7 km/h 95 % 0.00 in /  0 mm
09:00 48.3 °F /  9.1 °C 46.9 °F /  8.3 °C 30.02 in /  1016.5 hPa WSW 0.1 mph /  0.2 km/h 1.2 mph /  1.9 km/h 95 % 0.00 in /  0 mm
09:05 48.3 °F /  9.1 °C 46.9 °F /  8.3 °C 30.02 in /  1016.5 hPa SW 1.7 mph /  2.7 km/h 3.5 mph /  5.6 km/h 95 % 0.00 in /  0 mm
09:10 48.4 °F /  9.1 °C 47.3 °F /  8.5 °C 30.02 in /  1016.5 hPa Calm   1.2 mph /  1.9 km/h 96 % 0.00 in /  0 mm
09:15 48.4 °F /  9.1 °C 47.3 °F /  8.5 °C 30.02 in /  1016.5 hPa SW 0.9 mph /  1.4 km/h 3.5 mph /  5.6 km/h 96 % 0.00 in /  0 mm
09:20 48.5 °F /  9.2 °C 47.4 °F /  8.6 °C 30.02 in /  1016.5 hPa Calm     96 % 0.00 in /  0 mm
09:25 48.5 °F /  9.2 °C 47.4 °F /  8.6 °C 30.02 in /  1016.5 hPa SW 0.1 mph /  0.2 km/h 3.5 mph /  5.6 km/h 96 % 0.00 in /  0 mm
09:31 48.6 °F /  9.2 °C 47.5 °F /  8.6 °C 30.02 in /  1016.5 hPa Calm   1.0 mph /  1.6 km/h 96 % 0.00 in /  0 mm
09:36 48.6 °F /  9.2 °C 47.5 °F /  8.6 °C 30.02 in /  1016.5 hPa Calm   1.0 mph /  1.6 km/h 96 % 0.00 in /  0 mm
09:41 48.7 °F /  9.3 °C 47.6 °F /  8.7 °C 30.02 in /  1016.5 hPa Calm   2.0 mph /  3.2 km/h 96 % 0.00 in /  0 mm
09:46 48.7 °F /  9.3 °C 47.6 °F /  8.7 °C 30.02 in /  1016.5 hPa SW 1.0 mph /  1.6 km/h 2.0 mph /  3.2 km/h 96 % 0.00 in /  0 mm
09:51 48.8 °F /  9.3 °C 47.7 °F /  8.7 °C 30.02 in /  1016.5 hPa Calm   2.3 mph /  3.7 km/h 96 % 0.00 in /  0 mm
09:56 48.9 °F /  9.4 °C 47.8 °F /  8.8 °C 30.02 in /  1016.5 hPa Calm   3.0 mph /  4.8 km/h 96 % 0.00 in /  0 mm
10:01 49.0 °F /  9.4 °C 47.9 °F /  8.8 °C 30.03 in /  1016.8 hPa Calm   2.3 mph /  3.7 km/h 96 % 0.00 in /  0 mm
10:06 49.1 °F /  9.5 °C 48.0 °F /  8.9 °C 30.02 in /  1016.5 hPa SW 0.3 mph /  0.5 km/h 2.3 mph /  3.7 km/h 96 % 0.00 in /  0 mm
10:11 49.2 °F /  9.6 °C 48.1 °F /  8.9 °C 30.02 in /  1016.5 hPa SW 2.6 mph /  4.2 km/h 3.5 mph /  5.6 km/h 96 % 0.00 in /  0 mm
10:16 49.3 °F /  9.6 °C 48.2 °F /  9 °C 30.02 in /  1016.5 hPa Calm   2.3 mph /  3.7 km/h 96 % 0.00 in /  0 mm
10:21 49.4 °F /  9.7 °C 48.3 °F /  9.1 °C 30.02 in /  1016.5 hPa WSW 0.7 mph /  1.1 km/h 2.3 mph /  3.7 km/h 96 % 0.00 in /  0 mm
10:26 49.4 °F /  9.7 °C 48.3 °F /  9.1 °C 30.03 in /  1016.8 hPa WSW 0.9 mph /  1.4 km/h 3.5 mph /  5.6 km/h 96 % 0.00 in /  0 mm
10:31 49.5 °F /  9.7 °C 48.4 °F /  9.1 °C 30.03 in /  1016.8 hPa WSW 0.3 mph /  0.5 km/h 2.3 mph /  3.7 km/h 96 % 0.00 in /  0 mm
10:36 49.5 °F /  9.7 °C 48.4 °F /  9.1 °C 30.02 in /  1016.5 hPa SW 1.8 mph /  2.9 km/h 4.0 mph /  6.4 km/h 96 % 0.00 in /  0 mm
10:41 49.5 °F /  9.7 °C 48.4 °F /  9.1 °C 30.03 in /  1016.8 hPa WSW 0.5 mph /  0.8 km/h 3.5 mph /  5.6 km/h 96 % 0.00 in /  0 mm
10:46 49.5 °F /  9.7 °C 48.4 °F /  9.1 °C 30.03 in /  1016.8 hPa WSW 1.7 mph /  2.7 km/h 4.6 mph /  7.4 km/h 96 % 0.00 in /  0 mm
10:51 49.6 °F /  9.8 °C 48.5 °F /  9.2 °C 30.03 in /  1016.8 hPa WSW 1.3 mph /  2.1 km/h 2.3 mph /  3.7 km/h 96 % 0.00 in /  0 mm
10:56 49.5 °F /  9.7 °C 48.4 °F /  9.1 °C 30.03 in /  1016.8 hPa WSW 2.9 mph /  4.7 km/h 5.8 mph /  9.3 km/h 96 % 0.00 in /  0 mm
11:01 49.5 °F /  9.7 °C 48.4 °F /  9.1 °C 30.03 in /  1016.8 hPa SW 0.5 mph /  0.8 km/h 3.5 mph /  5.6 km/h 96 % 0.00 in /  0 mm
11:06 49.5 °F /  9.7 °C 48.4 °F /  9.1 °C 30.03 in /  1016.8 hPa WSW 0.8 mph /  1.3 km/h 2.3 mph /  3.7 km/h 96 % 0.00 in /  0 mm
11:11 49.5 °F /  9.7 °C 48.4 °F /  9.1 °C 30.04 in /  1017.2 hPa WSW 0.7 mph /  1.1 km/h 3.5 mph /  5.6 km/h 96 % 0.00 in /  0 mm
11:16 49.5 °F /  9.7 °C 48.4 °F /  9.1 °C 30.03 in /  1016.8 hPa WSW 1.0 mph /  1.6 km/h 2.3 mph /  3.7 km/h 96 % 0.00 in /  0 mm
11:22 49.4 °F /  9.7 °C 48.3 °F /  9.1 °C 30.02 in /  1016.5 hPa SSW 1.4 mph /  2.3 km/h 3.5 mph /  5.6 km/h 96 % 0.00 in /  0 mm
11:27 49.4 °F /  9.7 °C 48.3 °F /  9.1 °C 30.02 in /  1016.5 hPa SSW 0.1 mph /  0.2 km/h 2.3 mph /  3.7 km/h 96 % 0.00 in /  0 mm
11:32 49.4 °F /  9.7 °C 48.3 °F /  9.1 °C 30.02 in /  1016.5 hPa North 0.3 mph /  0.5 km/h 2.0 mph /  3.2 km/h 96 % 0.00 in /  0 mm
11:37 49.4 °F /  9.7 °C 48.3 °F /  9.1 °C 30.01 in /  1016.1 hPa Calm   1.2 mph /  1.9 km/h 96 % 0.00 in /  0 mm
11:42 49.4 °F /  9.7 °C 48.3 °F /  9.1 °C 30.01 in /  1016.1 hPa Calm     96 % 0.00 in /  0 mm
11:47 49.4 °F /  9.7 °C 48.3 °F /  9.1 °C 30.01 in /  1016.1 hPa SSW 0.8 mph /  1.3 km/h 2.3 mph /  3.7 km/h 96 % 0.00 in /  0 mm
11:52 49.4 °F /  9.7 °C 48.3 °F /  9.1 °C 30.01 in /  1016.1 hPa Calm     96 % 0.00 in /  0 mm
11:57 49.4 °F /  9.7 °C 48.3 °F /  9.1 °C 30.01 in /  1016.1 hPa Calm     96 % 0.00 in /  0 mm
12:02 49.4 °F /  9.7 °C 48.3 °F /  9.1 °C 30.00 in /  1015.8 hPa Calm   2.3 mph /  3.7 km/h 96 % 0.00 in /  0 mm
12:07 49.4 °F /  9.7 °C 48.3 °F /  9.1 °C 30.00 in /  1015.8 hPa WSW 0.1 mph /  0.2 km/h 1.2 mph /  1.9 km/h 96 % 0.00 in /  0 mm
12:12 49.3 °F /  9.6 °C 48.2 °F /  9 °C 30.00 in /  1015.8 hPa WSW 0.2 mph /  0.3 km/h 1.2 mph /  1.9 km/h 96 % 0.00 in /  0 mm
12:17 49.3 °F /  9.6 °C 48.2 °F /  9 °C 30.00 in /  1015.8 hPa Calm     96 % 0.00 in /  0 mm
12:22 49.2 °F /  9.6 °C 48.1 °F /  8.9 °C 30.00 in /  1015.8 hPa WSW 1.4 mph /  2.3 km/h 3.5 mph /  5.6 km/h 96 % 0.00 in /  0 mm
12:27 49.2 °F /  9.6 °C 48.1 °F /  8.9 °C 29.99 in /  1015.5 hPa WSW 0.3 mph /  0.5 km/h 2.3 mph /  3.7 km/h 96 % 0.00 in /  0 mm
12:32 49.1 °F /  9.5 °C 48.0 °F /  8.9 °C 29.99 in /  1015.5 hPa WSW 1.2 mph /  1.9 km/h 2.0 mph /  3.2 km/h 96 % 0.00 in /  0 mm
12:37 49.1 °F /  9.5 °C 48.0 °F /  8.9 °C 29.99 in /  1015.5 hPa WSW 1.7 mph /  2.7 km/h 3.5 mph /  5.6 km/h 96 % 0.00 in /  0 mm
12:43 49.1 °F /  9.5 °C 48.0 °F /  8.9 °C 29.99 in /  1015.5 hPa Calm     96 % 0.00 in /  0 mm
12:48 49.0 °F /  9.4 °C 47.9 °F /  8.8 °C 29.98 in /  1015.1 hPa WSW 0.1 mph /  0.2 km/h 1.2 mph /  1.9 km/h 96 % 0.00 in /  0 mm
12:53 48.9 °F /  9.4 °C 47.8 °F /  8.8 °C 29.98 in /  1015.1 hPa Calm     96 % 0.00 in /  0 mm
12:58 49.0 °F /  9.4 °C 47.9 °F /  8.8 °C 29.98 in /  1015.1 hPa WSW 0.8 mph /  1.3 km/h 2.3 mph /  3.7 km/h 96 % 0.00 in /  0 mm
13:03 48.9 °F /  9.4 °C 47.8 °F /  8.8 °C 29.98 in /  1015.1 hPa WSW 0.8 mph /  1.3 km/h 2.3 mph /  3.7 km/h 96 % 0.00 in /  0 mm
13:08 48.9 °F /  9.4 °C 47.8 °F /  8.8 °C 29.98 in /  1015.1 hPa WSW 0.4 mph /  0.6 km/h 3.5 mph /  5.6 km/h 96 % 0.00 in /  0 mm
13:13 48.8 °F /  9.3 °C 47.4 °F /  8.6 °C 29.98 in /  1015.1 hPa WSW 0.7 mph /  1.1 km/h 2.3 mph /  3.7 km/h 95 % 0.00 in /  0 mm
13:18 48.8 °F /  9.3 °C 47.4 °F /  8.6 °C 29.98 in /  1015.1 hPa WSW 0.2 mph /  0.3 km/h 2.3 mph /  3.7 km/h 95 % 0.00 in /  0 mm
13:23 48.8 °F /  9.3 °C 47.4 °F /  8.6 °C 29.97 in /  1014.8 hPa WSW 0.6 mph /  1 km/h 3.0 mph /  4.8 km/h 95 % 0.00 in /  0 mm
13:28 48.8 °F /  9.3 °C 47.4 °F /  8.6 °C 29.97 in /  1014.8 hPa WSW 0.8 mph /  1.3 km/h 2.0 mph /  3.2 km/h 95 % 0.00 in /  0 mm
13:33 48.8 °F /  9.3 °C 47.4 °F /  8.6 °C 29.97 in /  1014.8 hPa NW 1.2 mph /  1.9 km/h 3.5 mph /  5.6 km/h 95 % 0.00 in /  0 mm
13:38 48.8 °F /  9.3 °C 47.4 °F /  8.6 °C 29.97 in /  1014.8 hPa NW 0.6 mph /  1 km/h 2.3 mph /  3.7 km/h 95 % 0.00 in /  0 mm
13:43 48.8 °F /  9.3 °C 47.4 °F /  8.6 °C 29.97 in /  1014.8 hPa WNW 1.9 mph /  3.1 km/h 3.5 mph /  5.6 km/h 95 % 0.00 in /  0 mm
13:48 48.8 °F /  9.3 °C 47.4 °F /  8.6 °C 29.98 in /  1015.1 hPa West 1.8 mph /  2.9 km/h 3.5 mph /  5.6 km/h 95 % 0.00 in /  0 mm
13:53 48.8 °F /  9.3 °C 47.4 °F /  8.6 °C 29.97 in /  1014.8 hPa Calm   1.2 mph /  1.9 km/h 95 % 0.00 in /  0 mm
13:58 48.9 °F /  9.4 °C 47.5 °F /  8.6 °C 29.97 in /  1014.8 hPa WSW 0.7 mph /  1.1 km/h 3.5 mph /  5.6 km/h 95 % 0.00 in /  0 mm
14:03 48.9 °F /  9.4 °C 47.5 °F /  8.6 °C 29.97 in /  1014.8 hPa WSW 2.0 mph /  3.2 km/h 2.3 mph /  3.7 km/h 95 % 0.00 in /  0 mm
14:08 49.0 °F /  9.4 °C 47.6 °F /  8.7 °C 29.97 in /  1014.8 hPa WSW 2.6 mph /  4.2 km/h 3.5 mph /  5.6 km/h 95 % 0.00 in /  0 mm
14:13 49.1 °F /  9.5 °C 47.4 °F /  8.6 °C 29.97 in /  1014.8 hPa WSW 1.6 mph /  2.6 km/h 2.3 mph /  3.7 km/h 94 % 0.00 in /  0 mm
14:18 49.2 °F /  9.6 °C 47.5 °F /  8.6 °C 29.97 in /  1014.8 hPa WSW 0.3 mph /  0.5 km/h 2.3 mph /  3.7 km/h 94 % 0.00 in /  0 mm
14:24 49.2 °F /  9.6 °C 47.5 °F /  8.6 °C 29.98 in /  1015.1 hPa WSW 0.1 mph /  0.2 km/h 1.0 mph /  1.6 km/h 94 % 0.00 in /  0 mm
14:29 49.3 °F /  9.6 °C 47.6 °F /  8.7 °C 29.98 in /  1015.1 hPa WSW 0.2 mph /  0.3 km/h 2.3 mph /  3.7 km/h 94 % 0.00 in /  0 mm
14:34 49.3 °F /  9.6 °C 47.4 °F /  8.6 °C 29.97 in /  1014.8 hPa WSW 0.2 mph /  0.3 km/h 1.2 mph /  1.9 km/h 93 % 0.01 in /  0.25 mm
14:39 49.4 °F /  9.7 °C 47.2 °F /  8.4 °C 29.97 in /  1014.8 hPa Calm   1.0 mph /  1.6 km/h 92 % 0.01 in /  0.25 mm
14:44 49.4 °F /  9.7 °C 47.2 °F /  8.4 °C 29.97 in /  1014.8 hPa WSW 0.1 mph /  0.2 km/h 3.5 mph /  5.6 km/h 92 % 0.01 in /  0.25 mm
14:49 49.4 °F /  9.7 °C 46.9 °F /  8.3 °C 29.97 in /  1014.8 hPa Calm   1.2 mph /  1.9 km/h 91 % 0.01 in /  0.25 mm
14:54 49.4 °F /  9.7 °C 46.6 °F /  8.1 °C 29.97 in /  1014.8 hPa Calm   1.0 mph /  1.6 km/h 90 % 0.01 in /  0.25 mm
14:59 49.4 °F /  9.7 °C 46.6 °F /  8.1 °C 29.96 in /  1014.4 hPa WSW 0.4 mph /  0.6 km/h 2.3 mph /  3.7 km/h 90 % 0.01 in /  0.25 mm
15:04 49.3 °F /  9.6 °C 45.9 °F /  7.7 °C 29.97 in /  1014.8 hPa Calm     88 % 0.01 in /  0.25 mm
15:09 49.3 °F /  9.6 °C 45.9 °F /  7.7 °C 29.97 in /  1014.8 hPa WSW 1.4 mph /  2.3 km/h 3.5 mph /  5.6 km/h 88 % 0.01 in /  0.25 mm
15:14 49.3 °F /  9.6 °C 45.9 °F /  7.7 °C 29.97 in /  1014.8 hPa WSW 0.4 mph /  0.6 km/h 2.0 mph /  3.2 km/h 88 % 0.01 in /  0.25 mm
15:19 49.2 °F /  9.6 °C 45.8 °F /  7.7 °C 29.97 in /  1014.8 hPa Calm     88 % 0.01 in /  0.25 mm
15:24 49.2 °F /  9.6 °C 45.8 °F /  7.7 °C 29.96 in /  1014.4 hPa Calm     88 % 0.01 in /  0.25 mm
15:29 49.1 °F /  9.5 °C 45.7 °F /  7.6 °C 29.97 in /  1014.8 hPa Calm     88 % 0.01 in /  0.25 mm
15:34 49.1 °F /  9.5 °C 45.4 °F /  7.4 °C 29.97 in /  1014.8 hPa Calm     87 % 0.00 in /  0 mm
15:39 49.0 °F /  9.4 °C 45.3 °F /  7.4 °C 29.97 in /  1014.8 hPa Calm     87 % 0.00 in /  0 mm
15:45 49.0 °F /  9.4 °C 45.3 °F /  7.4 °C 29.97 in /  1014.8 hPa Calm     87 % 0.00 in /  0 mm
15:50 48.9 °F /  9.4 °C 45.2 °F /  7.3 °C 29.97 in /  1014.8 hPa Calm     87 % 0.00 in /  0 mm
15:55 48.8 °F /  9.3 °C 45.4 °F /  7.4 °C 29.97 in /  1014.8 hPa Calm     88 % 0.00 in /  0 mm
16:00 48.7 °F /  9.3 °C 45.3 °F /  7.4 °C 29.97 in /  1014.8 hPa Calm   1.0 mph /  1.6 km/h 88 % 0.00 in /  0 mm
16:05 48.7 °F /  9.3 °C 45.3 °F /  7.4 °C 29.97 in /  1014.8 hPa Calm     88 % 0.00 in /  0 mm
16:10 48.6 °F /  9.2 °C 45.2 °F /  7.3 °C 29.97 in /  1014.8 hPa Calm     88 % 0.00 in /  0 mm
16:15 48.6 °F /  9.2 °C 45.2 °F /  7.3 °C 29.97 in /  1014.8 hPa Calm   1.2 mph /  1.9 km/h 88 % 0.00 in /  0 mm
16:20 48.5 °F /  9.2 °C 45.1 °F /  7.3 °C 29.97 in /  1014.8 hPa Calm     88 % 0.00 in /  0 mm
16:25 48.4 °F /  9.1 °C 45.3 °F /  7.4 °C 29.97 in /  1014.8 hPa Calm     89 % 0.00 in /  0 mm
16:30 48.3 °F /  9.1 °C 45.2 °F /  7.3 °C 29.97 in /  1014.8 hPa Calm     89 % 0.00 in /  0 mm
16:35 48.2 °F /  9 °C 45.1 °F /  7.3 °C 29.98 in /  1015.1 hPa Calm     89 % 0.00 in /  0 mm
16:41 48.1 °F /  8.9 °C 45.0 °F /  7.2 °C 29.98 in /  1015.1 hPa Calm   2.0 mph /  3.2 km/h 89 % 0.00 in /  0 mm
16:46 48.0 °F /  8.9 °C 44.9 °F /  7.2 °C 29.98 in /  1015.1 hPa Calm   2.0 mph /  3.2 km/h 89 % 0.00 in /  0 mm
16:50 47.9 °F /  8.8 °C 44.8 °F /  7.1 °C 29.98 in /  1015.1 hPa Calm     89 % 0.00 in /  0 mm
16:56 47.8 °F /  8.8 °C 44.7 °F /  7.1 °C 29.98 in /  1015.1 hPa Calm     89 % 0.00 in /  0 mm
17:01 47.7 °F /  8.7 °C 44.6 °F /  7 °C 29.98 in /  1015.1 hPa Calm     89 % 0.00 in /  0 mm
17:06 47.6 °F /  8.7 °C 44.5 °F /  6.9 °C 29.98 in /  1015.1 hPa Calm     89 % 0.00 in /  0 mm
17:11 47.5 °F /  8.6 °C 44.7 °F /  7.1 °C 29.98 in /  1015.1 hPa Calm     90 % 0.00 in /  0 mm
17:16 47.4 °F /  8.6 °C 44.6 °F /  7 °C 29.98 in /  1015.1 hPa Calm     90 % 0.00 in /  0 mm
17:21 47.2 °F /  8.4 °C 44.1 °F /  6.7 °C 29.98 in /  1015.1 hPa Calm     89 % 0.00 in /  0 mm
17:26 47.1 °F /  8.4 °C 44.0 °F /  6.7 °C 29.98 in /  1015.1 hPa Calm     89 % 0.00 in /  0 mm
17:31 47.0 °F /  8.3 °C 44.2 °F /  6.8 °C 29.98 in /  1015.1 hPa Calm     90 % 0.00 in /  0 mm
17:36 46.8 °F /  8.2 °C 44.0 °F /  6.7 °C 29.98 in /  1015.1 hPa Calm     90 % 0.00 in /  0 mm
17:41 46.6 °F /  8.1 °C 43.8 °F /  6.6 °C 29.98 in /  1015.1 hPa Calm     90 % 0.00 in /  0 mm
17:46 46.5 °F /  8.1 °C 43.7 °F /  6.5 °C 29.98 in /  1015.1 hPa Calm     90 % 0.00 in /  0 mm
17:51 46.3 °F /  7.9 °C 43.5 °F /  6.4 °C 29.98 in /  1015.1 hPa Calm     90 % 0.00 in /  0 mm
17:56 46.2 °F /  7.9 °C 43.4 °F /  6.3 °C 29.98 in /  1015.1 hPa Calm     90 % 0.00 in /  0 mm
18:01 46.1 °F /  7.8 °C 43.3 °F /  6.3 °C 29.98 in /  1015.1 hPa Calm     90 % 0.00 in /  0 mm
18:06 46.0 °F /  7.8 °C 43.2 °F /  6.2 °C 29.99 in /  1015.5 hPa Calm     90 % 0.00 in /  0 mm
18:11 45.8 °F /  7.7 °C 43.0 °F /  6.1 °C 29.99 in /  1015.5 hPa Calm     90 % 0.00 in /  0 mm
18:16 45.7 °F /  7.6 °C 42.9 °F /  6.1 °C 29.99 in /  1015.5 hPa Calm     90 % 0.00 in /  0 mm
18:22 45.7 °F /  7.6 °C 42.9 °F /  6.1 °C 30.00 in /  1015.8 hPa Calm     90 % 0.00 in /  0 mm
18:27 45.5 °F /  7.5 °C 42.7 °F /  5.9 °C 30.00 in /  1015.8 hPa Calm     90 % 0.00 in /  0 mm
18:32 45.4 °F /  7.4 °C 42.9 °F /  6.1 °C 29.99 in /  1015.5 hPa Calm     91 % 0.00 in /  0 mm
18:37 45.3 °F /  7.4 °C 42.8 °F /  6 °C 30.00 in /  1015.8 hPa Calm     91 % 0.00 in /  0 mm
18:42 45.2 °F /  7.3 °C 42.7 °F /  5.9 °C 30.00 in /  1015.8 hPa Calm     91 % 0.00 in /  0 mm
18:47 45.0 °F /  7.2 °C 42.5 °F /  5.8 °C 30.00 in /  1015.8 hPa Calm     91 % 0.00 in /  0 mm
18:52 44.9 °F /  7.2 °C 42.4 °F /  5.8 °C 30.00 in /  1015.8 hPa Calm     91 % 0.00 in /  0 mm
18:57 44.7 °F /  7.1 °C 42.2 °F /  5.7 °C 30.00 in /  1015.8 hPa Calm     91 % 0.00 in /  0 mm
19:02 44.5 °F /  6.9 °C 42.0 °F /  5.6 °C 30.00 in /  1015.8 hPa Calm     91 % 0.00 in /  0 mm
19:07 44.2 °F /  6.8 °C 41.7 °F /  5.4 °C 29.99 in /  1015.5 hPa Calm     91 % 0.00 in /  0 mm
19:12 44.1 °F /  6.7 °C 41.6 °F /  5.3 °C 29.99 in /  1015.5 hPa Calm     91 % 0.00 in /  0 mm
19:17 43.9 °F /  6.6 °C 41.4 °F /  5.2 °C 30.00 in /  1015.8 hPa Calm     91 % 0.00 in /  0 mm
19:22 43.7 °F /  6.5 °C 41.2 °F /  5.1 °C 30.00 in /  1015.8 hPa Calm     91 % 0.00 in /  0 mm
19:27 43.6 °F /  6.4 °C 41.1 °F /  5.1 °C 30.00 in /  1015.8 hPa Calm     91 % 0.00 in /  0 mm
19:32 43.4 °F /  6.3 °C 40.9 °F /  4.9 °C 30.00 in /  1015.8 hPa Calm     91 % 0.00 in /  0 mm
19:37 43.3 °F /  6.3 °C 40.8 °F /  4.9 °C 29.99 in /  1015.5 hPa Calm     91 % 0.00 in /  0 mm
19:42 43.1 °F /  6.2 °C 40.7 °F /  4.8 °C 30.00 in /  1015.8 hPa Calm     91 % 0.00 in /  0 mm
19:47 43.0 °F /  6.1 °C 40.6 °F /  4.8 °C 30.00 in /  1015.8 hPa Calm     91 % 0.00 in /  0 mm
19:52 42.8 °F /  6 °C 40.4 °F /  4.7 °C 29.99 in /  1015.5 hPa Calm     91 % 0.00 in /  0 mm
19:58 42.7 °F /  5.9 °C 40.3 °F /  4.6 °C 30.00 in /  1015.8 hPa Calm     91 % 0.00 in /  0 mm
20:03 42.6 °F /  5.9 °C 40.2 °F /  4.6 °C 30.00 in /  1015.8 hPa Calm     91 % 0.00 in /  0 mm
20:08 42.5 °F /  5.8 °C 40.3 °F /  4.6 °C 30.00 in /  1015.8 hPa Calm     92 % 0.00 in /  0 mm
20:13 42.4 °F /  5.8 °C 40.0 °F /  4.4 °C 30.00 in /  1015.8 hPa Calm     91 % 0.00 in /  0 mm
20:18 42.3 °F /  5.7 °C 40.1 °F /  4.5 °C 30.00 in /  1015.8 hPa Calm     92 % 0.00 in /  0 mm
20:23 42.2 °F /  5.7 °C 40.0 °F /  4.4 °C 30.00 in /  1015.8 hPa Calm     92 % 0.00 in /  0 mm
20:28 42.2 °F /  5.7 °C 40.0 °F /  4.4 °C 30.00 in /  1015.8 hPa Calm     92 % 0.00 in /  0 mm
20:33 42.1 °F /  5.6 °C 39.9 °F /  4.4 °C 30.00 in /  1015.8 hPa Calm     92 % 0.00 in /  0 mm
20:38 42.0 °F /  5.6 °C 39.8 °F /  4.3 °C 30.00 in /  1015.8 hPa Calm     92 % 0.00 in /  0 mm
20:43 41.9 °F /  5.5 °C 39.7 °F /  4.3 °C 30.00 in /  1015.8 hPa Calm     92 % 0.00 in /  0 mm
20:48 41.9 °F /  5.5 °C 39.7 °F /  4.3 °C 29.99 in /  1015.5 hPa Calm     92 % 0.00 in /  0 mm
20:53 41.8 °F /  5.4 °C 39.6 °F /  4.2 °C 29.99 in /  1015.5 hPa Calm     92 % 0.00 in /  0 mm
20:58 41.7 °F /  5.4 °C 39.5 °F /  4.2 °C 30.00 in /  1015.8 hPa Calm     92 % 0.00 in /  0 mm
21:03 41.6 °F /  5.3 °C 39.7 °F /  4.3 °C 30.00 in /  1015.8 hPa Calm     93 % 0.00 in /  0 mm
21:08 41.5 °F /  5.3 °C 39.6 °F /  4.2 °C 30.00 in /  1015.8 hPa Calm     93 % 0.00 in /  0 mm
21:13 41.5 °F /  5.3 °C 39.6 °F /  4.2 °C 30.00 in /  1015.8 hPa Calm     93 % 0.00 in /  0 mm
21:18 41.4 °F /  5.2 °C 39.5 °F /  4.2 °C 30.00 in /  1015.8 hPa Calm     93 % 0.00 in /  0 mm
21:23 41.4 °F /  5.2 °C 39.5 °F /  4.2 °C 30.00 in /  1015.8 hPa Calm     93 % 0.00 in /  0 mm
21:28 41.4 °F /  5.2 °C 39.5 °F /  4.2 °C 30.01 in /  1016.1 hPa Calm     93 % 0.00 in /  0 mm
21:34 41.4 °F /  5.2 °C 39.8 °F /  4.3 °C 30.00 in /  1015.8 hPa Calm     94 % 0.00 in /  0 mm
21:39 41.4 °F /  5.2 °C 39.8 °F /  4.3 °C 30.00 in /  1015.8 hPa Calm     94 % 0.00 in /  0 mm
21:44 41.4 °F /  5.2 °C 39.8 °F /  4.3 °C 30.00 in /  1015.8 hPa Calm     94 % 0.00 in /  0 mm
21:49 41.4 °F /  5.2 °C 39.8 °F /  4.3 °C 30.01 in /  1016.1 hPa Calm     94 % 0.00 in /  0 mm
21:54 41.4 °F /  5.2 °C 39.8 °F /  4.3 °C 30.00 in /  1015.8 hPa Calm     94 % 0.00 in /  0 mm
21:59 41.6 °F /  5.3 °C 40.0 °F /  4.4 °C 30.00 in /  1015.8 hPa Calm     94 % 0.00 in /  0 mm
22:04 41.6 °F /  5.3 °C 40.0 °F /  4.4 °C 30.00 in /  1015.8 hPa Calm     94 % 0.00 in /  0 mm
22:09 41.6 °F /  5.3 °C 40.0 °F /  4.4 °C 30.00 in /  1015.8 hPa Calm     94 % 0.00 in /  0 mm
22:14 41.5 °F /  5.3 °C 39.9 °F /  4.4 °C 30.00 in /  1015.8 hPa Calm     94 % 0.00 in /  0 mm
22:19 41.5 °F /  5.3 °C 39.9 °F /  4.4 °C 30.00 in /  1015.8 hPa Calm     94 % 0.00 in /  0 mm
22:24 41.5 °F /  5.3 °C 39.9 °F /  4.4 °C 30.00 in /  1015.8 hPa Calm     94 % 0.00 in /  0 mm
22:29 41.5 °F /  5.3 °C 40.2 °F /  4.6 °C 30.01 in /  1016.1 hPa Calm     95 % 0.00 in /  0 mm
22:34 41.4 °F /  5.2 °C 40.1 °F /  4.5 °C 30.01 in /  1016.1 hPa Calm     95 % 0.00 in /  0 mm
22:39 41.4 °F /  5.2 °C 40.1 °F /  4.5 °C 30.01 in /  1016.1 hPa Calm     95 % 0.00 in /  0 mm
22:44 41.3 °F /  5.2 °C 40.0 °F /  4.4 °C 30.01 in /  1016.1 hPa Calm     95 % 0.00 in /  0 mm
22:49 41.3 °F /  5.2 °C 40.0 °F /  4.4 °C 30.00 in /  1015.8 hPa Calm     95 % 0.00 in /  0 mm
22:54 41.2 °F /  5.1 °C 39.9 °F /  4.4 °C 30.00 in /  1015.8 hPa Calm     95 % 0.00 in /  0 mm
22:59 41.2 °F /  5.1 °C 39.9 °F /  4.4 °C 30.00 in /  1015.8 hPa Calm     95 % 0.00 in /  0 mm
23:04 41.1 °F /  5.1 °C 39.5 °F /  4.2 °C 30.00 in /  1015.8 hPa Calm     94 % 0.00 in /  0 mm
23:10 41.0 °F /  5 °C 39.4 °F /  4.1 °C 30.00 in /  1015.8 hPa Calm     94 % 0.00 in /  0 mm
23:15 40.9 °F /  4.9 °C 39.3 °F /  4.1 °C 30.00 in /  1015.8 hPa Calm     94 % 0.00 in /  0 mm
23:20 40.9 °F /  4.9 °C 39.3 °F /  4.1 °C 30.00 in /  1015.8 hPa Calm     94 % 0.00 in /  0 mm
23:25 40.8 °F /  4.9 °C 39.2 °F /  4 °C 30.00 in /  1015.8 hPa Calm     94 % 0.00 in /  0 mm
23:30 40.7 °F /  4.8 °C 39.1 °F /  3.9 °C 30.00 in /  1015.8 hPa Calm     94 % 0.00 in /  0 mm
23:35 40.6 °F /  4.8 °C 39.0 °F /  3.9 °C 30.00 in /  1015.8 hPa Calm     94 % 0.00 in /  0 mm
23:40 40.6 °F /  4.8 °C 39.0 °F /  3.9 °C 30.00 in /  1015.8 hPa Calm     94 % 0.00 in /  0 mm
23:45 40.5 °F /  4.7 °C 38.9 °F /  3.8 °C 30.00 in /  1015.8 hPa WSW 0.3 mph /  0.5 km/h 1.2 mph /  1.9 km/h 94 % 0.00 in /  0 mm
23:50 40.4 °F /  4.7 °C 38.8 °F /  3.8 °C 30.00 in /  1015.8 hPa Calm     94 % 0.00 in /  0 mm
23:55 40.3 °F /  4.6 °C 38.7 °F /  3.7 °C 30.00 in /  1015.8 hPa WSW 0.2 mph /  0.3 km/h 1.2 mph /  1.9 km/h 94 % 0.00 in /  0 mm
Crab Meadow Weather
Compliments of Weather Underground - 3 mb

Script developed by  Jim McMurry - jmcmurry@mwt.net Adapted for the template by  Wim van der Kuil - Leuven-Template.eu

Weather Terms: Waterspout - In general, a tornado occurring over water. Specifically, it refers to a small, relatively weak rotating column of air over water beneath a towering cumulus or cumulonimbus cloud. They occasionally occur over Lake Michigan in late summer with unusually cold air aloft.